sensor_id;sensor_type;location;lat;lon;timestamp;P1;durP1;ratioP1;P2;durP2;ratioP2
25972;SDS011;13765;51.166;4.466;2022-08-14T00:01:44;10.20;;;3.42;;
25972;SDS011;13765;51.166;4.466;2022-08-14T00:04:11;6.95;;;2.63;;
25972;SDS011;13765;51.166;4.466;2022-08-14T00:06:39;4.65;;;2.47;;
25972;SDS011;13765;51.166;4.466;2022-08-14T00:09:07;9.70;;;3.08;;
25972;SDS011;13765;51.166;4.466;2022-08-14T00:11:33;7.85;;;3.50;;
25972;SDS011;13765;51.166;4.466;2022-08-14T00:14:00;6.93;;;2.65;;
25972;SDS011;13765;51.166;4.466;2022-08-14T00:16:28;9.13;;;2.83;;
25972;SDS011;13765;51.166;4.466;2022-08-14T00:18:53;5.63;;;2.65;;
25972;SDS011;13765;51.166;4.466;2022-08-14T00:21:24;6.28;;;2.83;;
25972;SDS011;13765;51.166;4.466;2022-08-14T00:23:50;3.88;;;2.72;;
25972;SDS011;13765;51.166;4.466;2022-08-14T00:26:18;7.78;;;3.05;;
25972;SDS011;13765;51.166;4.466;2022-08-14T00:28:44;9.20;;;2.83;;
25972;SDS011;13765;51.166;4.466;2022-08-14T00:31:10;7.82;;;3.00;;
25972;SDS011;13765;51.166;4.466;2022-08-14T00:33:36;10.23;;;3.13;;
25972;SDS011;13765;51.166;4.466;2022-08-14T00:36:02;7.13;;;3.00;;
25972;SDS011;13765;51.166;4.466;2022-08-14T00:38:30;10.50;;;3.92;;
25972;SDS011;13765;51.166;4.466;2022-08-14T00:41:01;7.35;;;2.85;;
25972;SDS011;13765;51.166;4.466;2022-08-14T00:43:33;7.05;;;2.97;;
25972;SDS011;13765;51.166;4.466;2022-08-14T00:46:04;7.90;;;3.40;;
25972;SDS011;13765;51.166;4.466;2022-08-14T00:48:33;5.28;;;2.80;;
25972;SDS011;13765;51.166;4.466;2022-08-14T00:51:02;8.50;;;2.70;;
25972;SDS011;13765;51.166;4.466;2022-08-14T00:53:30;5.82;;;3.17;;
25972;SDS011;13765;51.166;4.466;2022-08-14T00:55:58;12.80;;;3.40;;
25972;SDS011;13765;51.166;4.466;2022-08-14T00:58:24;5.60;;;3.13;;
25972;SDS011;13765;51.166;4.466;2022-08-14T01:01:00;6.57;;;3.03;;
25972;SDS011;13765;51.166;4.466;2022-08-14T01:03:28;6.43;;;2.67;;
25972;SDS011;13765;51.166;4.466;2022-08-14T01:05:57;11.93;;;3.88;;
25972;SDS011;13765;51.166;4.466;2022-08-14T01:08:25;6.93;;;3.20;;
25972;SDS011;13765;51.166;4.466;2022-08-14T01:10:53;7.85;;;3.05;;
25972;SDS011;13765;51.166;4.466;2022-08-14T01:13:25;6.40;;;2.65;;
25972;SDS011;13765;51.166;4.466;2022-08-14T01:15:56;8.77;;;2.95;;
25972;SDS011;13765;51.166;4.466;2022-08-14T01:18:25;7.70;;;3.15;;
25972;SDS011;13765;51.166;4.466;2022-08-14T01:21:13;8.23;;;3.20;;
25972;SDS011;13765;51.166;4.466;2022-08-14T01:23:44;6.85;;;3.25;;
25972;SDS011;13765;51.166;4.466;2022-08-14T01:26:14;6.85;;;3.38;;
25972;SDS011;13765;51.166;4.466;2022-08-14T01:28:45;8.88;;;3.40;;
25972;SDS011;13765;51.166;4.466;2022-08-14T01:31:22;10.55;;;3.78;;
25972;SDS011;13765;51.166;4.466;2022-08-14T01:33:50;8.30;;;3.22;;
25972;SDS011;13765;51.166;4.466;2022-08-14T01:36:21;6.30;;;2.97;;
25972;SDS011;13765;51.166;4.466;2022-08-14T01:38:49;7.65;;;3.40;;
25972;SDS011;13765;51.166;4.466;2022-08-14T01:41:17;7.13;;;3.25;;
25972;SDS011;13765;51.166;4.466;2022-08-14T01:43:49;5.00;;;3.00;;
25972;SDS011;13765;51.166;4.466;2022-08-14T01:46:17;9.43;;;3.53;;
25972;SDS011;13765;51.166;4.466;2022-08-14T01:48:45;5.60;;;3.42;;
25972;SDS011;13765;51.166;4.466;2022-08-14T01:51:12;8.35;;;3.00;;
25972;SDS011;13765;51.166;4.466;2022-08-14T01:53:45;5.18;;;3.13;;
25972;SDS011;13765;51.166;4.466;2022-08-14T01:56:14;7.72;;;3.65;;
25972;SDS011;13765;51.166;4.466;2022-08-14T01:58:44;9.35;;;3.85;;
25972;SDS011;13765;51.166;4.466;2022-08-14T02:01:17;7.35;;;3.25;;
25972;SDS011;13765;51.166;4.466;2022-08-14T02:03:44;8.88;;;3.60;;
25972;SDS011;13765;51.166;4.466;2022-08-14T02:06:11;7.07;;;3.28;;
25972;SDS011;13765;51.166;4.466;2022-08-14T02:08:40;13.38;;;3.58;;
25972;SDS011;13765;51.166;4.466;2022-08-14T02:11:06;7.13;;;3.30;;
25972;SDS011;13765;51.166;4.466;2022-08-14T02:14:08;9.85;;;3.53;;
25972;SDS011;13765;51.166;4.466;2022-08-14T02:16:36;7.43;;;3.08;;
25972;SDS011;13765;51.166;4.466;2022-08-14T02:19:06;5.28;;;3.05;;
25972;SDS011;13765;51.166;4.466;2022-08-14T02:21:34;12.20;;;4.15;;
25972;SDS011;13765;51.166;4.466;2022-08-14T02:24:05;10.10;;;3.47;;
25972;SDS011;13765;51.166;4.466;2022-08-14T02:26:34;7.28;;;3.33;;
25972;SDS011;13765;51.166;4.466;2022-08-14T02:29:07;6.03;;;3.25;;
25972;SDS011;13765;51.166;4.466;2022-08-14T02:31:35;11.35;;;3.75;;
25972;SDS011;13765;51.166;4.466;2022-08-14T02:34:06;6.20;;;2.95;;
25972;SDS011;13765;51.166;4.466;2022-08-14T02:36:35;8.20;;;3.53;;
25972;SDS011;13765;51.166;4.466;2022-08-14T02:39:04;8.68;;;3.45;;
25972;SDS011;13765;51.166;4.466;2022-08-14T02:41:32;9.93;;;4.00;;
25972;SDS011;13765;51.166;4.466;2022-08-14T02:44:01;10.63;;;3.40;;
25972;SDS011;13765;51.166;4.466;2022-08-14T02:46:31;11.40;;;3.90;;
25972;SDS011;13765;51.166;4.466;2022-08-14T02:48:57;10.02;;;3.92;;
25972;SDS011;13765;51.166;4.466;2022-08-14T02:51:26;10.40;;;3.70;;
25972;SDS011;13765;51.166;4.466;2022-08-14T02:53:56;7.53;;;3.72;;
25972;SDS011;13765;51.166;4.466;2022-08-14T02:56:23;7.82;;;3.90;;
25972;SDS011;13765;51.166;4.466;2022-08-14T02:58:55;12.40;;;4.10;;
25972;SDS011;13765;51.166;4.466;2022-08-14T03:01:23;7.35;;;3.50;;
25972;SDS011;13765;51.166;4.466;2022-08-14T03:03:49;10.82;;;3.97;;
25972;SDS011;13765;51.166;4.466;2022-08-14T03:06:18;10.75;;;3.65;;
25972;SDS011;13765;51.166;4.466;2022-08-14T03:08:51;6.95;;;3.20;;
25972;SDS011;13765;51.166;4.466;2022-08-14T03:11:19;10.55;;;3.72;;
25972;SDS011;13765;51.166;4.466;2022-08-14T03:13:46;6.43;;;3.60;;
25972;SDS011;13765;51.166;4.466;2022-08-14T03:16:15;6.50;;;3.58;;
25972;SDS011;13765;51.166;4.466;2022-08-14T03:18:46;8.68;;;3.78;;
25972;SDS011;13765;51.166;4.466;2022-08-14T03:21:18;9.50;;;3.80;;
25972;SDS011;13765;51.166;4.466;2022-08-14T03:23:49;8.52;;;4.15;;
25972;SDS011;13765;51.166;4.466;2022-08-14T03:26:22;7.68;;;3.75;;
25972;SDS011;13765;51.166;4.466;2022-08-14T03:28:50;9.52;;;4.07;;
25972;SDS011;13765;51.166;4.466;2022-08-14T03:31:17;12.25;;;4.10;;
25972;SDS011;13765;51.166;4.466;2022-08-14T03:33:46;8.52;;;4.28;;
25972;SDS011;13765;51.166;4.466;2022-08-14T03:36:16;10.35;;;3.90;;
25972;SDS011;13765;51.166;4.466;2022-08-14T03:38:45;10.15;;;4.07;;
25972;SDS011;13765;51.166;4.466;2022-08-14T03:41:16;10.45;;;4.05;;
25972;SDS011;13765;51.166;4.466;2022-08-14T03:43:48;13.85;;;4.90;;
25972;SDS011;13765;51.166;4.466;2022-08-14T03:46:21;12.60;;;4.55;;
25972;SDS011;13765;51.166;4.466;2022-08-14T03:48:50;10.65;;;4.28;;
25972;SDS011;13765;51.166;4.466;2022-08-14T03:51:18;12.63;;;4.45;;
25972;SDS011;13765;51.166;4.466;2022-08-14T03:53:46;13.15;;;4.75;;
25972;SDS011;13765;51.166;4.466;2022-08-14T03:56:14;8.13;;;3.70;;
25972;SDS011;13765;51.166;4.466;2022-08-14T03:58:43;11.40;;;4.57;;
25972;SDS011;13765;51.166;4.466;2022-08-14T04:01:11;10.57;;;4.10;;
25972;SDS011;13765;51.166;4.466;2022-08-14T04:03:43;6.53;;;3.70;;
25972;SDS011;13765;51.166;4.466;2022-08-14T04:06:12;7.20;;;3.47;;
25972;SDS011;13765;51.166;4.466;2022-08-14T04:08:43;9.65;;;4.63;;
25972;SDS011;13765;51.166;4.466;2022-08-14T04:11:11;16.52;;;4.85;;
25972;SDS011;13765;51.166;4.466;2022-08-14T04:13:38;13.88;;;4.88;;
25972;SDS011;13765;51.166;4.466;2022-08-14T04:16:10;8.65;;;4.28;;
25972;SDS011;13765;51.166;4.466;2022-08-14T04:18:41;10.88;;;5.13;;
25972;SDS011;13765;51.166;4.466;2022-08-14T04:21:14;7.80;;;3.97;;
25972;SDS011;13765;51.166;4.466;2022-08-14T04:23:41;14.50;;;4.82;;
25972;SDS011;13765;51.166;4.466;2022-08-14T04:26:10;10.40;;;4.10;;
25972;SDS011;13765;51.166;4.466;2022-08-14T04:31:09;9.95;;;3.70;;
25972;SDS011;13765;51.166;4.466;2022-08-14T04:33:37;12.35;;;5.15;;
25972;SDS011;13765;51.166;4.466;2022-08-14T04:36:05;15.75;;;4.95;;
25972;SDS011;13765;51.166;4.466;2022-08-14T04:38:33;10.80;;;4.35;;
25972;SDS011;13765;51.166;4.466;2022-08-14T04:41:18;10.48;;;4.50;;
25972;SDS011;13765;51.166;4.466;2022-08-14T04:44:04;13.05;;;4.60;;
25972;SDS011;13765;51.166;4.466;2022-08-14T04:46:33;11.07;;;4.60;;
25972;SDS011;13765;51.166;4.466;2022-08-14T04:49:00;11.57;;;5.47;;
25972;SDS011;13765;51.166;4.466;2022-08-14T04:51:30;8.18;;;4.53;;
25972;SDS011;13765;51.166;4.466;2022-08-14T04:53:57;14.15;;;4.85;;
25972;SDS011;13765;51.166;4.466;2022-08-14T04:56:27;12.05;;;4.50;;
25972;SDS011;13765;51.166;4.466;2022-08-14T04:58:59;12.88;;;4.57;;
25972;SDS011;13765;51.166;4.466;2022-08-14T05:01:29;11.82;;;5.03;;
25972;SDS011;13765;51.166;4.466;2022-08-14T05:03:57;10.10;;;4.72;;
25972;SDS011;13765;51.166;4.466;2022-08-14T05:06:22;12.20;;;4.68;;
25972;SDS011;13765;51.166;4.466;2022-08-14T05:08:51;12.25;;;4.40;;
25972;SDS011;13765;51.166;4.466;2022-08-14T05:11:18;12.55;;;4.93;;
25972;SDS011;13765;51.166;4.466;2022-08-14T05:13:44;11.60;;;4.57;;
25972;SDS011;13765;51.166;4.466;2022-08-14T05:16:14;9.25;;;4.32;;
25972;SDS011;13765;51.166;4.466;2022-08-14T05:18:42;14.48;;;4.40;;
25972;SDS011;13765;51.166;4.466;2022-08-14T05:21:10;10.15;;;4.47;;
25972;SDS011;13765;51.166;4.466;2022-08-14T05:23:39;11.02;;;4.65;;
25972;SDS011;13765;51.166;4.466;2022-08-14T05:26:07;9.88;;;4.10;;
25972;SDS011;13765;51.166;4.466;2022-08-14T05:28:42;12.38;;;4.05;;
25972;SDS011;13765;51.166;4.466;2022-08-14T05:31:12;13.35;;;4.63;;
25972;SDS011;13765;51.166;4.466;2022-08-14T05:33:41;18.67;;;5.32;;
25972;SDS011;13765;51.166;4.466;2022-08-14T05:36:09;9.85;;;3.97;;
25972;SDS011;13765;51.166;4.466;2022-08-14T05:38:37;13.30;;;3.95;;
25972;SDS011;13765;51.166;4.466;2022-08-14T05:41:10;17.02;;;4.43;;
25972;SDS011;13765;51.166;4.466;2022-08-14T05:43:40;10.75;;;4.35;;
25972;SDS011;13765;51.166;4.466;2022-08-14T05:46:12;10.40;;;3.95;;
25972;SDS011;13765;51.166;4.466;2022-08-14T05:48:42;7.78;;;3.97;;
25972;SDS011;13765;51.166;4.466;2022-08-14T05:51:12;9.88;;;3.88;;
25972;SDS011;13765;51.166;4.466;2022-08-14T05:53:38;10.00;;;3.60;;
25972;SDS011;13765;51.166;4.466;2022-08-14T05:56:04;8.73;;;3.95;;
25972;SDS011;13765;51.166;4.466;2022-08-14T05:58:30;13.77;;;3.95;;
25972;SDS011;13765;51.166;4.466;2022-08-14T06:00:56;8.05;;;3.60;;
25972;SDS011;13765;51.166;4.466;2022-08-14T06:03:22;8.00;;;3.60;;
25972;SDS011;13765;51.166;4.466;2022-08-14T06:05:51;6.55;;;3.67;;
25972;SDS011;13765;51.166;4.466;2022-08-14T06:10:45;6.25;;;3.28;;
25972;SDS011;13765;51.166;4.466;2022-08-14T06:13:12;7.82;;;3.33;;
25972;SDS011;13765;51.166;4.466;2022-08-14T06:15:41;8.38;;;3.25;;
25972;SDS011;13765;51.166;4.466;2022-08-14T06:18:07;9.98;;;3.13;;
25972;SDS011;13765;51.166;4.466;2022-08-14T06:20:33;4.82;;;2.90;;
25972;SDS011;13765;51.166;4.466;2022-08-14T06:23:02;9.27;;;2.63;;
25972;SDS011;13765;51.166;4.466;2022-08-14T06:25:33;7.88;;;3.25;;
25972;SDS011;13765;51.166;4.466;2022-08-14T06:27:59;6.18;;;3.00;;
25972;SDS011;13765;51.166;4.466;2022-08-14T06:30:29;5.80;;;2.65;;
25972;SDS011;13765;51.166;4.466;2022-08-14T06:32:59;7.65;;;2.58;;
25972;SDS011;13765;51.166;4.466;2022-08-14T06:35:27;5.13;;;2.88;;
25972;SDS011;13765;51.166;4.466;2022-08-14T06:37:57;8.25;;;3.53;;
25972;SDS011;13765;51.166;4.466;2022-08-14T06:43:02;9.82;;;3.40;;
25972;SDS011;13765;51.166;4.466;2022-08-14T06:45:30;6.38;;;3.10;;
25972;SDS011;13765;51.166;4.466;2022-08-14T06:48:02;9.43;;;3.50;;
25972;SDS011;13765;51.166;4.466;2022-08-14T06:50:29;5.93;;;3.08;;
25972;SDS011;13765;51.166;4.466;2022-08-14T06:52:56;7.70;;;3.42;;
25972;SDS011;13765;51.166;4.466;2022-08-14T06:55:27;5.75;;;2.80;;
25972;SDS011;13765;51.166;4.466;2022-08-14T06:57:53;5.05;;;2.83;;
25972;SDS011;13765;51.166;4.466;2022-08-14T07:00:20;9.27;;;3.20;;
25972;SDS011;13765;51.166;4.466;2022-08-14T07:02:50;7.55;;;2.85;;
25972;SDS011;13765;51.166;4.466;2022-08-14T07:05:40;8.73;;;2.92;;
25972;SDS011;13765;51.166;4.466;2022-08-14T07:08:18;6.03;;;3.10;;
25972;SDS011;13765;51.166;4.466;2022-08-14T07:13:21;8.13;;;3.30;;
25972;SDS011;13765;51.166;4.466;2022-08-14T07:15:48;5.57;;;3.33;;
25972;SDS011;13765;51.166;4.466;2022-08-14T07:18:36;4.72;;;3.03;;
25972;SDS011;13765;51.166;4.466;2022-08-14T07:21:02;6.55;;;3.10;;
25972;SDS011;13765;51.166;4.466;2022-08-14T07:23:32;5.40;;;3.55;;
25972;SDS011;13765;51.166;4.466;2022-08-14T07:25:59;9.55;;;3.78;;
25972;SDS011;13765;51.166;4.466;2022-08-14T07:28:32;6.05;;;3.05;;
25972;SDS011;13765;51.166;4.466;2022-08-14T07:31:01;5.97;;;3.35;;
25972;SDS011;13765;51.166;4.466;2022-08-14T07:33:30;6.03;;;3.60;;
25972;SDS011;13765;51.166;4.466;2022-08-14T07:36:02;6.13;;;3.45;;
25972;SDS011;13765;51.166;4.466;2022-08-14T07:38:32;6.57;;;3.17;;
25972;SDS011;13765;51.166;4.466;2022-08-14T07:40:58;5.97;;;3.42;;
25972;SDS011;13765;51.166;4.466;2022-08-14T07:43:26;8.18;;;3.22;;
25972;SDS011;13765;51.166;4.466;2022-08-14T07:45:53;6.93;;;3.00;;
25972;SDS011;13765;51.166;4.466;2022-08-14T07:48:19;5.93;;;3.25;;
25972;SDS011;13765;51.166;4.466;2022-08-14T07:50:46;8.43;;;3.50;;
25972;SDS011;13765;51.166;4.466;2022-08-14T07:53:14;5.53;;;3.17;;
25972;SDS011;13765;51.166;4.466;2022-08-14T07:55:43;6.85;;;3.80;;
25972;SDS011;13765;51.166;4.466;2022-08-14T07:58:13;9.98;;;3.65;;
25972;SDS011;13765;51.166;4.466;2022-08-14T08:00:40;7.40;;;3.65;;
25972;SDS011;13765;51.166;4.466;2022-08-14T08:03:09;6.55;;;3.33;;
25972;SDS011;13765;51.166;4.466;2022-08-14T08:05:39;5.25;;;3.22;;
25972;SDS011;13765;51.166;4.466;2022-08-14T08:08:06;7.25;;;3.60;;
25972;SDS011;13765;51.166;4.466;2022-08-14T08:10:33;7.68;;;3.30;;
25972;SDS011;13765;51.166;4.466;2022-08-14T08:13:03;8.68;;;3.60;;
25972;SDS011;13765;51.166;4.466;2022-08-14T08:15:44;7.05;;;3.78;;
25972;SDS011;13765;51.166;4.466;2022-08-14T08:18:14;9.32;;;3.72;;
25972;SDS011;13765;51.166;4.466;2022-08-14T08:20:45;7.15;;;3.55;;
25972;SDS011;13765;51.166;4.466;2022-08-14T08:23:17;8.18;;;3.95;;
25972;SDS011;13765;51.166;4.466;2022-08-14T08:28:20;7.57;;;3.63;;
25972;SDS011;13765;51.166;4.466;2022-08-14T08:33:19;5.13;;;2.95;;
25972;SDS011;13765;51.166;4.466;2022-08-14T08:35:46;7.28;;;3.63;;
25972;SDS011;13765;51.166;4.466;2022-08-14T08:38:19;5.82;;;3.33;;
25972;SDS011;13765;51.166;4.466;2022-08-14T08:40:49;6.10;;;3.40;;
25972;SDS011;13765;51.166;4.466;2022-08-14T08:48:51;7.38;;;3.65;;
25972;SDS011;13765;51.166;4.466;2022-08-14T08:51:25;6.47;;;3.58;;
25972;SDS011;13765;51.166;4.466;2022-08-14T08:59:25;10.93;;;3.97;;
25972;SDS011;13765;51.166;4.466;2022-08-14T09:01:55;9.10;;;3.25;;
25972;SDS011;13765;51.166;4.466;2022-08-14T09:04:26;6.78;;;3.53;;
25972;SDS011;13765;51.166;4.466;2022-08-14T09:06:54;6.07;;;3.38;;
25972;SDS011;13765;51.166;4.466;2022-08-14T09:11:51;7.40;;;3.03;;
25972;SDS011;13765;51.166;4.466;2022-08-14T09:14:19;7.40;;;3.63;;
25972;SDS011;13765;51.166;4.466;2022-08-14T09:16:46;6.82;;;3.20;;
25972;SDS011;13765;51.166;4.466;2022-08-14T09:19:16;9.00;;;3.25;;
25972;SDS011;13765;51.166;4.466;2022-08-14T09:21:42;12.30;;;3.35;;
25972;SDS011;13765;51.166;4.466;2022-08-14T09:24:10;8.50;;;3.22;;
25972;SDS011;13765;51.166;4.466;2022-08-14T09:26:39;9.70;;;3.50;;
25972;SDS011;13765;51.166;4.466;2022-08-14T09:29:09;4.70;;;2.80;;
25972;SDS011;13765;51.166;4.466;2022-08-14T09:31:37;11.10;;;3.97;;
25972;SDS011;13765;51.166;4.466;2022-08-14T09:37:15;5.15;;;2.88;;
25972;SDS011;13765;51.166;4.466;2022-08-14T09:40:02;9.77;;;3.30;;
25972;SDS011;13765;51.166;4.466;2022-08-14T09:45:46;4.63;;;2.55;;
25972;SDS011;13765;51.166;4.466;2022-08-14T09:48:15;3.95;;;2.72;;
25972;SDS011;13765;51.166;4.466;2022-08-14T09:50:53;5.00;;;2.60;;
25972;SDS011;13765;51.166;4.466;2022-08-14T09:56:10;4.47;;;2.47;;
25972;SDS011;13765;51.166;4.466;2022-08-14T09:58:37;3.72;;;2.17;;
25972;SDS011;13765;51.166;4.466;2022-08-14T10:01:14;5.43;;;2.63;;
25972;SDS011;13765;51.166;4.466;2022-08-14T10:06:15;4.60;;;2.55;;
25972;SDS011;13765;51.166;4.466;2022-08-14T10:08:44;2.88;;;2.08;;
25972;SDS011;13765;51.166;4.466;2022-08-14T10:14:11;10.80;;;2.60;;
25972;SDS011;13765;51.166;4.466;2022-08-14T10:16:41;3.78;;;2.28;;
25972;SDS011;13765;51.166;4.466;2022-08-14T10:19:11;4.22;;;2.03;;
25972;SDS011;13765;51.166;4.466;2022-08-14T10:21:40;2.97;;;2.25;;
25972;SDS011;13765;51.166;4.466;2022-08-14T10:24:27;2.47;;;1.90;;
25972;SDS011;13765;51.166;4.466;2022-08-14T10:26:56;7.10;;;2.55;;
25972;SDS011;13765;51.166;4.466;2022-08-14T10:29:30;4.10;;;2.28;;
25972;SDS011;13765;51.166;4.466;2022-08-14T10:31:58;3.95;;;1.92;;
25972;SDS011;13765;51.166;4.466;2022-08-14T10:34:33;4.07;;;2.10;;
25972;SDS011;13765;51.166;4.466;2022-08-14T10:37:10;2.92;;;1.63;;
25972;SDS011;13765;51.166;4.466;2022-08-14T10:39:40;4.32;;;1.77;;
25972;SDS011;13765;51.166;4.466;2022-08-14T10:42:11;4.10;;;1.60;;
25972;SDS011;13765;51.166;4.466;2022-08-14T10:44:45;5.78;;;1.90;;
25972;SDS011;13765;51.166;4.466;2022-08-14T10:47:13;6.22;;;1.60;;
25972;SDS011;13765;51.166;4.466;2022-08-14T10:49:42;5.78;;;1.92;;
25972;SDS011;13765;51.166;4.466;2022-08-14T10:52:24;2.45;;;1.60;;
25972;SDS011;13765;51.166;4.466;2022-08-14T10:55:03;3.63;;;1.17;;
25972;SDS011;13765;51.166;4.466;2022-08-14T10:57:45;5.05;;;1.52;;
25972;SDS011;13765;51.166;4.466;2022-08-14T11:00:13;2.90;;;1.65;;
25972;SDS011;13765;51.166;4.466;2022-08-14T11:02:41;5.55;;;2.13;;
25972;SDS011;13765;51.166;4.466;2022-08-14T11:05:16;6.72;;;1.98;;
25972;SDS011;13765;51.166;4.466;2022-08-14T11:10:26;3.47;;;1.80;;
25972;SDS011;13765;51.166;4.466;2022-08-14T11:13:05;3.70;;;1.77;;
25972;SDS011;13765;51.166;4.466;2022-08-14T11:15:35;2.97;;;1.73;;
25972;SDS011;13765;51.166;4.466;2022-08-14T11:18:03;2.50;;;1.70;;
25972;SDS011;13765;51.166;4.466;2022-08-14T11:20:29;7.45;;;2.05;;
25972;SDS011;13765;51.166;4.466;2022-08-14T11:23:00;1.90;;;1.67;;
25972;SDS011;13765;51.166;4.466;2022-08-14T11:25:30;2.72;;;1.98;;
25972;SDS011;13765;51.166;4.466;2022-08-14T11:27:59;3.03;;;1.63;;
25972;SDS011;13765;51.166;4.466;2022-08-14T11:30:26;6.18;;;1.92;;
25972;SDS011;13765;51.166;4.466;2022-08-14T11:32:55;2.20;;;1.77;;
25972;SDS011;13765;51.166;4.466;2022-08-14T11:35:26;4.80;;;1.75;;
25972;SDS011;13765;51.166;4.466;2022-08-14T11:40:21;4.28;;;1.92;;
25972;SDS011;13765;51.166;4.466;2022-08-14T11:42:53;4.93;;;1.80;;
25972;SDS011;13765;51.166;4.466;2022-08-14T11:45:21;4.30;;;1.88;;
25972;SDS011;13765;51.166;4.466;2022-08-14T11:47:51;2.08;;;1.60;;
25972;SDS011;13765;51.166;4.466;2022-08-14T11:50:22;3.17;;;1.42;;
25972;SDS011;13765;51.166;4.466;2022-08-14T11:55:21;4.55;;;1.55;;
25972;SDS011;13765;51.166;4.466;2022-08-14T11:58:04;3.20;;;1.35;;
25972;SDS011;13765;51.166;4.466;2022-08-14T12:00:44;6.65;;;1.60;;
25972;SDS011;13765;51.166;4.466;2022-08-14T12:03:18;3.85;;;1.83;;
25972;SDS011;13765;51.166;4.466;2022-08-14T12:05:47;1.77;;;1.30;;
25972;SDS011;13765;51.166;4.466;2022-08-14T12:08:13;2.70;;;1.52;;
25972;SDS011;13765;51.166;4.466;2022-08-14T12:10:40;2.72;;;1.20;;
25972;SDS011;13765;51.166;4.466;2022-08-14T12:13:14;1.75;;;1.17;;
25972;SDS011;13765;51.166;4.466;2022-08-14T12:15:42;1.92;;;1.60;;
25972;SDS011;13765;51.166;4.466;2022-08-14T12:18:34;4.30;;;1.67;;
25972;SDS011;13765;51.166;4.466;2022-08-14T12:23:43;1.38;;;1.27;;
25972;SDS011;13765;51.166;4.466;2022-08-14T12:26:27;2.83;;;1.90;;
25972;SDS011;13765;51.166;4.466;2022-08-14T12:29:04;5.28;;;1.55;;
25972;SDS011;13765;51.166;4.466;2022-08-14T12:31:34;1.98;;;1.48;;
25972;SDS011;13765;51.166;4.466;2022-08-14T12:34:07;3.75;;;1.63;;
25972;SDS011;13765;51.166;4.466;2022-08-14T12:36:37;3.25;;;1.70;;
25972;SDS011;13765;51.166;4.466;2022-08-14T12:39:19;1.73;;;1.50;;
25972;SDS011;13765;51.166;4.466;2022-08-14T12:41:48;1.90;;;1.40;;
25972;SDS011;13765;51.166;4.466;2022-08-14T12:44:30;2.90;;;1.67;;
25972;SDS011;13765;51.166;4.466;2022-08-14T12:47:05;1.67;;;1.23;;
25972;SDS011;13765;51.166;4.466;2022-08-14T12:49:36;3.60;;;1.85;;
25972;SDS011;13765;51.166;4.466;2022-08-14T12:52:04;2.75;;;1.83;;
25972;SDS011;13765;51.166;4.466;2022-08-14T12:54:33;3.67;;;1.63;;
25972;SDS011;13765;51.166;4.466;2022-08-14T12:57:03;2.17;;;1.58;;
25972;SDS011;13765;51.166;4.466;2022-08-14T12:59:31;4.05;;;2.13;;
25972;SDS011;13765;51.166;4.466;2022-08-14T13:02:01;3.97;;;1.67;;
25972;SDS011;13765;51.166;4.466;2022-08-14T13:04:32;3.47;;;1.42;;
25972;SDS011;13765;51.166;4.466;2022-08-14T13:07:03;4.75;;;2.17;;
25972;SDS011;13765;51.166;4.466;2022-08-14T13:09:32;4.32;;;1.80;;
25972;SDS011;13765;51.166;4.466;2022-08-14T13:11:59;4.15;;;2.10;;
25972;SDS011;13765;51.166;4.466;2022-08-14T13:14:29;3.78;;;2.17;;
25972;SDS011;13765;51.166;4.466;2022-08-14T13:17:00;6.05;;;1.63;;
25972;SDS011;13765;51.166;4.466;2022-08-14T13:19:28;4.63;;;1.98;;
25972;SDS011;13765;51.166;4.466;2022-08-14T13:21:56;1.63;;;1.35;;
25972;SDS011;13765;51.166;4.466;2022-08-14T13:24:23;2.22;;;1.60;;
25972;SDS011;13765;51.166;4.466;2022-08-14T13:26:54;2.65;;;1.67;;
25972;SDS011;13765;51.166;4.466;2022-08-14T13:29:25;2.03;;;1.73;;
25972;SDS011;13765;51.166;4.466;2022-08-14T13:31:55;2.53;;;1.40;;
25972;SDS011;13765;51.166;4.466;2022-08-14T13:34:26;4.47;;;1.67;;
25972;SDS011;13765;51.166;4.466;2022-08-14T13:36:53;2.85;;;1.88;;
25972;SDS011;13765;51.166;4.466;2022-08-14T13:39:21;3.92;;;1.65;;
25972;SDS011;13765;51.166;4.466;2022-08-14T13:41:48;1.73;;;1.60;;
25972;SDS011;13765;51.166;4.466;2022-08-14T13:44:17;3.65;;;1.90;;
25972;SDS011;13765;51.166;4.466;2022-08-14T13:46:45;4.00;;;1.83;;
25972;SDS011;13765;51.166;4.466;2022-08-14T13:49:14;3.15;;;2.13;;
25972;SDS011;13765;51.166;4.466;2022-08-14T13:51:45;2.05;;;1.30;;
25972;SDS011;13765;51.166;4.466;2022-08-14T13:54:17;9.68;;;1.50;;
25972;SDS011;13765;51.166;4.466;2022-08-14T13:56:45;3.85;;;1.88;;
25972;SDS011;13765;51.166;4.466;2022-08-14T13:59:12;6.35;;;1.58;;
25972;SDS011;13765;51.166;4.466;2022-08-14T14:01:39;3.38;;;1.58;;
25972;SDS011;13765;51.166;4.466;2022-08-14T14:04:07;5.20;;;1.58;;
25972;SDS011;13765;51.166;4.466;2022-08-14T14:06:37;10.98;;;2.05;;
25972;SDS011;13765;51.166;4.466;2022-08-14T14:09:07;1.38;;;1.27;;
25972;SDS011;13765;51.166;4.466;2022-08-14T14:11:36;2.15;;;1.40;;
25972;SDS011;13765;51.166;4.466;2022-08-14T14:14:05;2.60;;;1.52;;
25972;SDS011;13765;51.166;4.466;2022-08-14T14:16:33;3.00;;;1.80;;
25972;SDS011;13765;51.166;4.466;2022-08-14T14:19:02;4.38;;;1.55;;
25972;SDS011;13765;51.166;4.466;2022-08-14T14:21:31;6.60;;;1.63;;
25972;SDS011;13765;51.166;4.466;2022-08-14T14:23:59;3.50;;;1.50;;
25972;SDS011;13765;51.166;4.466;2022-08-14T14:26:25;2.65;;;1.60;;
25972;SDS011;13765;51.166;4.466;2022-08-14T14:28:55;3.67;;;1.80;;
25972;SDS011;13765;51.166;4.466;2022-08-14T14:31:25;3.10;;;1.67;;
25972;SDS011;13765;51.166;4.466;2022-08-14T14:33:55;1.73;;;1.48;;
25972;SDS011;13765;51.166;4.466;2022-08-14T14:36:31;2.38;;;1.70;;
25972;SDS011;13765;51.166;4.466;2022-08-14T14:39:01;3.58;;;1.50;;
25972;SDS011;13765;51.166;4.466;2022-08-14T14:41:32;1.75;;;1.33;;
25972;SDS011;13765;51.166;4.466;2022-08-14T14:44:01;1.45;;;1.15;;
25972;SDS011;13765;51.166;4.466;2022-08-14T14:46:30;4.25;;;1.40;;
25972;SDS011;13765;51.166;4.466;2022-08-14T14:49:00;2.53;;;1.95;;
25972;SDS011;13765;51.166;4.466;2022-08-14T14:51:31;2.45;;;1.58;;
25972;SDS011;13765;51.166;4.466;2022-08-14T14:53:57;2.92;;;1.55;;
25972;SDS011;13765;51.166;4.466;2022-08-14T14:56:28;4.07;;;1.65;;
25972;SDS011;13765;51.166;4.466;2022-08-14T14:58:55;4.38;;;1.73;;
25972;SDS011;13765;51.166;4.466;2022-08-14T15:01:22;2.58;;;1.60;;
25972;SDS011;13765;51.166;4.466;2022-08-14T15:03:48;8.75;;;1.90;;
25972;SDS011;13765;51.166;4.466;2022-08-14T15:06:18;7.45;;;2.03;;
25972;SDS011;13765;51.166;4.466;2022-08-14T15:08:53;3.40;;;1.70;;
25972;SDS011;13765;51.166;4.466;2022-08-14T15:11:19;1.55;;;1.35;;
25972;SDS011;13765;51.166;4.466;2022-08-14T15:13:47;4.05;;;1.83;;
25972;SDS011;13765;51.166;4.466;2022-08-14T15:16:13;3.00;;;1.90;;
25972;SDS011;13765;51.166;4.466;2022-08-14T15:18:42;2.90;;;1.55;;
25972;SDS011;13765;51.166;4.466;2022-08-14T15:21:10;2.80;;;1.70;;
25972;SDS011;13765;51.166;4.466;2022-08-14T15:23:36;5.93;;;1.70;;
25972;SDS011;13765;51.166;4.466;2022-08-14T15:26:05;4.05;;;1.58;;
25972;SDS011;13765;51.166;4.466;2022-08-14T15:28:31;3.40;;;1.63;;
25972;SDS011;13765;51.166;4.466;2022-08-14T15:31:03;4.20;;;1.52;;
25972;SDS011;13765;51.166;4.466;2022-08-14T15:33:30;3.63;;;1.77;;
25972;SDS011;13765;51.166;4.466;2022-08-14T15:36:17;5.55;;;1.77;;
25972;SDS011;13765;51.166;4.466;2022-08-14T15:38:45;6.03;;;1.80;;
25972;SDS011;13765;51.166;4.466;2022-08-14T15:41:12;3.67;;;1.40;;
25972;SDS011;13765;51.166;4.466;2022-08-14T15:43:40;3.00;;;1.50;;
25972;SDS011;13765;51.166;4.466;2022-08-14T15:46:07;3.95;;;1.75;;
25972;SDS011;13765;51.166;4.466;2022-08-14T15:48:33;2.38;;;1.75;;
25972;SDS011;13765;51.166;4.466;2022-08-14T15:51:00;2.72;;;1.88;;
25972;SDS011;13765;51.166;4.466;2022-08-14T15:53:27;5.82;;;1.50;;
25972;SDS011;13765;51.166;4.466;2022-08-14T15:55:54;5.45;;;1.90;;